Latest Weather Observations for Newman Airport

IDW60801

Issued at 3:33 am WST Monday 24 April 2017 (issued every 30 minutes, with the page automatically refreshed every 10 minutes)

About weather observations | Map of weather stations | Latest weather observations for WA | Other Formats
Station Details ID: 007176 Name: NEWMAN AERO Lat: -23.42 Lon: 119.80 Height: 524.0 m
Data from the previous 72 hours. | See also: Recent months at Newman Airport
Date/Time
WST
Temp
°C
App
Temp
°C
Dew
Point
°C
Rel
Hum
%
Delta-T
°C
Wind Press
QNH
hPa
Press
MSL
hPa
Rain since
9am
mm
Dir  Spd
km/h
Gust
km/h
Spd
kts
Gust
kts
24/03:30am 19.5 21.0 18.8 96 0.4 NNE 9 11 5 6 1016.5 1013.4 39.8
24/03:00am 19.7 21.2 19.0 96 0.4 NE 9 13 5 7 1016.4 1013.3 39.8
24/02:30am 19.7 21.2 19.0 96 0.4 ENE 9 13 5 7 1016.6 1013.5 39.8
24/02:00am 19.9 21.5 19.1 95 0.5 ENE 9 13 5 7 1016.7 1013.6 39.6
24/01:30am 20.0 21.6 19.2 95 0.5 ENE 9 15 5 8 1016.8 1013.7 39.6
24/01:00am 20.1 21.8 19.3 95 0.5 ENE 9 13 5 7 1017.1 1014.1 39.6
24/12:30am 20.3 22.0 19.3 94 0.6 ENE 9 13 5 7 1017.1 1014.1 39.6
24/12:00am 20.3 22.3 19.1 93 0.8 ENE 7 11 4 6 1017.7 1014.6 39.6
 
Date/Time
WST
Temp
°C
App
Temp
°C
Dew
Point
°C
Rel
Hum
%
Delta-T
°C
Wind Press
QNH
hPa
Press
MSL
hPa
Rain since
9am
mm
Dir  Spd
km/h
Gust
km/h
Spd
kts
Gust
kts
23/11:30pm 20.3 21.2 19.3 94 0.6 NE 13 17 7 9 1017.5 1014.4 39.4
23/11:00pm 20.8 22.9 19.3 91 1.0 ENE 7 15 4 8 1017.8 1014.7 39.0
23/10:30pm 21.1 22.6 18.9 87 1.4 NNE 9 13 5 7 1017.7 1014.6 38.4
23/10:00pm 21.2 23.3 18.9 87 1.5 E 6 9 3 5 1017.7 1014.6 38.4
23/09:30pm 21.3 23.6 18.5 84 1.8 E 4 7 2 4 1017.7 1014.6 38.4
23/09:00pm 21.7 23.0 18.5 82 2.0 E 9 11 5 6 1017.6 1014.5 38.4
23/08:30pm 21.5 23.3 21.2 98 0.2 SSE 13 17 7 9 1017.5 1014.4 38.4
23/08:00pm 21.0 23.3 20.7 98 0.2 SSE 9 19 5 10 1016.8 1013.7 38.4
23/07:30pm 21.1 22.7 20.8 98 0.2 N 13 17 7 9 1015.9 1012.8 38.4
23/07:00pm 21.3 22.7 21.0 98 0.2 N 15 22 8 12 1015.9 1012.8 38.4
23/06:30pm 21.5 23.0 21.2 98 0.2 N 15 20 8 11 1016.2 1013.1 38.4
23/06:00pm 21.0 21.4 20.7 98 0.2 NNW 19 26 10 14 1015.8 1012.7 38.4
23/05:30pm 20.2 21.8 19.9 98 0.2 NNW 11 13 6 7 1015.5 1012.4 38.4
23/05:00pm 19.8 20.5 19.6 99 0.1 N 15 20 8 11 1015.8 1012.7 38.4
23/04:44pm 19.9 21.0 19.7 99 0.1 NE 13 17 7 9 1016.2 1013.1 38.2
23/04:30pm 19.3 21.2 19.0 98 0.2 E 7 13 4 7 1016.2 1013.1 37.6
23/04:09pm 19.6 20.5 19.3 98 0.2 SE 13 22 7 12 1015.2 1012.2 29.6
23/04:00pm 19.1 18.1 18.8 98 0.2 ENE 22 37 12 20 1015.0 1011.9 26.0
23/03:53pm 20.1 19.2 19.8 98 0.2 SE 24 61 13 33 1015.2 1012.2 21.4
23/03:46pm 19.1 13.4 18.6 97 0.3 SSW 46 104 25 56 1015.8 1012.7 9.0
23/03:44pm 19.6 13.7 18.9 96 0.4 SSW 48 104 26 56 1015.4 1012.3 5.4
23/03:41pm 19.9 15.8 19.1 95 0.5 SW 39 104 21 56 1014.3 1011.2 1.4
23/03:40pm 20.5 17.5 19.0 91 1.0 SW 33 70 18 38 1014.3 1011.2 0.6
23/03:35pm 24.8 23.7 17.8 65 4.5 SSE 20 48 11 26 1014.6 1011.5 0.0
23/03:30pm 26.3 25.7 17.6 58 5.6 ESE 17 24 9 13 1013.6 1010.5 0.0
23/03:00pm 25.6 25.2 18.0 63 4.9 SE 17 24 9 13 1013.6 1010.5 0.0
23/02:30pm 24.6 24.3 18.3 68 4.1 SE 17 24 9 13 1014.2 1011.1 0.0
23/02:20pm 26.1 25.3 18.5 63 4.9 NW 20 32 11 17 1014.2 1011.1 0.0
23/02:00pm 31.1 29.6 16.3 41 9.5 N 19 26 10 14 1013.5 1010.4 0.0
23/01:30pm 30.5 28.4 16.1 41 9.2 N 22 30 12 16 1013.6 1010.5 0.0
23/01:00pm 30.0 28.9 16.4 44 8.7 NNE 17 24 9 13 1014.3 1011.2 0.0
23/12:30pm 29.9 28.3 16.0 43 8.8 N 19 30 10 16 1015.0 1011.9 0.0
23/12:00pm 30.3 28.8 16.7 44 8.7 N 20 33 11 18 1015.7 1012.6 0.0
23/11:30am 29.2 27.4 16.0 44 8.3 N 20 33 11 18 1016.4 1013.3 0.0
23/11:00am 29.2 28.0 17.1 48 7.8 NE 19 26 10 14 1016.8 1013.7 0.0
23/10:30am 28.4 27.6 17.0 50 7.3 NE 17 22 9 12 1017.6 1014.5 0.0
23/10:00am 27.4 25.9 16.4 51 6.9 NE 19 28 10 15 1018.0 1014.9 0.0
23/09:30am 26.7 26.5 17.5 57 5.9 ENE 15 22 8 12 1018.2 1015.1 0.0
23/09:00am 26.0 25.7 17.4 59 5.5 ENE 15 24 8 13 1018.1 1015.0 0.0
23/08:30am 24.8 24.9 17.5 64 4.7 ENE 13 17 7 9 1018.1 1015.0 0.0
23/08:00am 23.8 24.4 17.8 69 3.8 ENE 11 17 6 9 1017.9 1014.8 0.0
23/07:30am 21.8 22.6 18.2 80 2.3 ENE 11 13 6 7 1017.7 1014.6 0.0
23/07:00am 21.3 22.4 17.9 81 2.2 NE 9 13 5 7 1017.6 1014.5 0.0
23/06:30am 20.7 21.8 18.1 85 1.6 ENE 9 11 5 6 1017.5 1014.4 0.0
23/06:00am 20.5 21.2 17.9 85 1.6 E 11 15 6 8 1017.4 1014.3 0.0
23/05:30am 20.4 20.7 17.8 85 1.6 E 13 17 7 9 1017.0 1014.0 0.0
23/05:00am 20.5 20.9 18.1 86 1.5 ENE 13 17 7 9 1017.0 1014.0 0.0
23/04:30am 20.9 20.9 18.1 84 1.8 NE 15 22 8 12 1016.9 1013.9 0.0
23/04:00am 20.9 21.2 18.7 87 1.4 NE 15 19 8 10 1016.9 1013.9 0.0
23/03:30am 20.9 21.3 18.1 84 1.8 NNW 13 19 7 10 1017.1 1014.1 0.0
23/03:00am 21.3 21.6 17.9 81 2.2 NNW 13 20 7 11 1017.1 1014.1 0.0
23/02:30am 23.3 23.0 17.3 69 3.8 NNW 15 22 8 12 1017.1 1014.1 0.0
23/02:00am 24.6 25.0 16.3 60 5.2 NNE 9 13 5 7 1016.5 1013.4 0.0
23/01:30am 24.9 24.0 15.8 57 5.6 N 15 20 8 11 1016.7 1013.6 0.0
23/01:00am 24.9 23.7 16.1 58 5.5 N 17 24 9 13 1016.8 1013.7 0.0
23/12:30am 24.8 24.8 15.1 54 6.0 NNE 9 13 5 7 1016.9 1013.9 0.0
23/12:00am 24.2 23.4 15.1 56 5.6 E 13 20 7 11 1016.7 1013.6 0.0
 
Date/Time
WST
Temp
°C
App
Temp
°C
Dew
Point
°C
Rel
Hum
%
Delta-T
°C
Wind Press
QNH
hPa
Press
MSL
hPa
Rain since
9am
mm
Dir  Spd
km/h
Gust
km/h
Spd
kts
Gust
kts
22/11:30pm 25.0 25.7 15.6 56 5.8 NW 6 9 3 5 1016.4 1013.3 0.0
22/11:00pm 23.9 24.5 15.7 60 5.1 WSW 7 11 4 6 1016.3 1013.2 0.0
22/10:30pm 23.4 25.7 16.7 66 4.2 CALM 0 0 0 0 1016.3 1013.2 0.0
22/10:00pm 22.9 24.8 15.7 64 4.4 CALM 0 0 0 0 1016.5 1013.4 0.0
22/09:30pm 24.3 25.2 15.2 57 5.6 E 4 6 2 3 1016.6 1013.5 0.0
22/09:00pm 25.4 25.2 13.6 48 7.1 N 7 9 4 5 1016.7 1013.6 0.0
22/08:30pm 25.5 25.8 14.6 51 6.7 N 6 9 3 5 1016.7 1013.6 0.0
22/08:00pm 25.9 26.2 15.0 51 6.7 NNE 7 11 4 6 1016.4 1013.3 0.0
22/07:30pm 26.5 26.2 14.3 47 7.4 ENE 9 11 5 6 1016.0 1012.9 0.0
22/07:00pm 27.4 26.9 13.7 43 8.3 ENE 9 11 5 6 1015.8 1012.7 0.0
22/06:30pm 28.2 27.5 13.3 40 9.0 ENE 9 13 5 7 1015.6 1012.5 0.0
22/06:00pm 29.4 28.2 11.5 33 10.6 ENE 9 11 5 6 1015.6 1012.5 0.0
22/05:30pm 30.6 29.3 11.1 30 11.5 ENE 9 13 5 7 1015.4 1012.3 0.0
22/05:00pm 31.3 30.3 11.1 29 11.9 E 7 11 4 6 1015.1 1012.0 0.0
22/04:30pm 31.2 30.2 11.1 29 11.9 NE 7 11 4 6 1014.8 1011.7 0.0
22/04:00pm 32.0 30.7 10.1 26 12.8 E 7 11 4 6 1014.8 1011.7 0.0
22/03:30pm 32.0 30.0 10.1 26 12.8 NNW 11 17 6 9 1014.8 1011.7 0.0
22/03:00pm 31.9 30.3 8.2 23 13.4 E 6 13 3 7 1014.9 1011.8 0.0
22/02:30pm 32.4 30.2 8.0 22 13.8 WSW 9 13 5 7 1015.0 1011.9 0.0
22/02:00pm 32.1 31.2 11.3 28 12.4 NNE 7 13 4 7 1015.2 1012.2 0.0
22/01:30pm 31.6 31.2 12.9 32 11.4 NNW 7 17 4 9 1015.6 1012.5 0.0
22/01:00pm 31.0 30.6 14.2 36 10.4 ENE 9 13 5 7 1015.8 1012.7 0.0
22/12:30pm 30.3 30.1 15.6 41 9.3 N 11 20 6 11 1016.3 1013.2 0.0
22/12:00pm 29.7 29.8 16.5 45 8.4 NNE 11 15 6 8 1016.8 1013.7 0.0
22/11:30am 29.0 29.4 17.2 49 7.6 NE 11 17 6 9 1017.5 1014.4 0.0
22/11:00am 28.5 28.6 17.4 51 7.1 NNE 13 20 7 11 1018.1 1015.0 0.0
22/10:30am 27.9 28.1 17.7 53 6.6 NNE 13 19 7 10 1018.6 1015.6 0.0
22/10:00am 27.0 27.5 17.5 56 6.1 NNE 11 17 6 9 1018.9 1015.9 0.0
22/09:30am 26.2 26.2 17.3 58 5.7 NE 13 20 7 11 1019.1 1016.1 0.0
22/09:00am 25.1 24.5 17.6 63 4.8 ENE 17 22 9 12 1019.2 1016.2 0.0
22/08:30am 23.8 23.9 17.5 68 4.0 ENE 13 22 7 12 1019.2 1016.2 0.0
22/08:00am 22.9 23.7 18.2 75 3.0 ENE 11 17 6 9 1019.2 1016.2 0.0
22/07:30am 22.0 23.8 18.2 79 2.4 ESE 6 9 3 5 1019.1 1016.1 0.0
22/07:00am 20.6 22.5 18.5 88 1.3 SE 6 7 3 4 1018.8 1015.8 0.0
22/06:30am 19.6 21.3 18.1 91 0.9 SSE 6 7 3 4 1018.5 1015.4 0.0
22/06:00am 19.7 21.4 18.0 90 1.1 SE 6 7 3 4 1018.2 1015.1 0.0
22/05:30am 19.8 21.5 18.1 90 1.1 SSE 6 7 3 4 1017.8 1014.7 0.0
22/05:00am 19.9 21.5 18.2 90 1.1 NW 7 9 4 5 1017.6 1014.5 0.0
22/04:30am 20.0 22.9 18.3 90 1.1 CALM 0 0 0 0 1017.2 1014.2 0.0
22/04:00am 20.3 23.2 18.2 88 1.3 CALM 0 0 0 0 1017.0 1014.0 0.0
22/03:30am 20.8 23.8 18.4 86 1.5 CALM 0 0 0 0 1017.0 1014.0 0.0
22/03:00am 21.2 23.0 18.4 84 1.8 SE 6 7 3 4 1017.0 1014.0 0.0
22/02:30am 21.6 23.4 18.4 82 2.0 ESE 6 9 3 5 1016.9 1013.9 0.0
22/02:00am 21.9 23.1 18.3 80 2.3 E 9 11 5 6 1016.8 1013.7 0.0
22/01:30am 22.0 23.6 18.2 79 2.4 E 7 11 4 6 1016.9 1013.9 0.0
22/01:00am 22.3 23.1 18.1 77 2.7 ESE 11 17 6 9 1017.1 1014.1 0.0
22/12:30am 22.5 23.1 17.6 74 3.1 E 11 20 6 11 1017.1 1014.1 0.0
22/12:00am 23.0 22.9 17.0 69 3.8 ESE 13 20 7 11 1017.1 1014.1 0.0
 
Date/Time
WST
Temp
°C
App
Temp
°C
Dew
Point
°C
Rel
Hum
%
Delta-T
°C
Wind Press
QNH
hPa
Press
MSL
hPa
Rain since
9am
mm
Dir  Spd
km/h
Gust
km/h
Spd
kts
Gust
kts
21/11:30pm 23.5 22.4 16.3 64 4.5 E 17 22 9 12 1017.1 1014.1 0.0
21/11:00pm 23.4 23.4 15.2 60 5.0 E 9 17 5 9 1017.2 1014.2 0.0
21/10:30pm 24.2 23.2 13.4 51 6.4 E 11 17 6 9 1017.5 1014.4 0.0
21/10:00pm 24.7 24.3 13.0 48 6.9 NE 7 9 4 5 1017.7 1014.6 0.0
21/09:30pm 24.9 24.5 13.1 48 7.0 NE 7 9 4 5 1017.8 1014.7 0.0
21/09:00pm 25.6 24.8 12.8 45 7.6 E 9 13 5 7 1017.6 1014.5 0.0
21/08:30pm 26.0 25.2 12.8 44 7.8 E 9 13 5 7 1017.6 1014.5 0.0
21/08:00pm 26.6 25.5 13.0 43 8.1 NE 11 15 6 8 1017.4 1014.3 0.0
21/07:30pm 26.1 25.8 13.2 44 7.7 NE 7 11 4 6 1016.9 1013.9 0.0
21/07:00pm 26.6 25.9 13.3 43 8.0 SE 9 11 5 6 1016.7 1013.6 0.0
21/06:30pm 27.5 26.9 12.3 39 9.0 E 7 11 4 6 1016.4 1013.3 0.0
21/06:00pm 28.1 27.6 12.8 38 9.2 SE 7 11 4 6 1016.1 1013.0 0.0
21/05:30pm 29.5 28.2 11.1 32 10.8 SE 9 13 5 7 1015.9 1012.8 0.0
21/05:00pm 30.7 29.0 11.1 30 11.6 ESE 11 17 6 9 1015.5 1012.4 0.0
21/04:30pm 30.9 29.5 10.8 29 11.8 ENE 9 11 5 6 1015.4 1012.3 0.0
21/04:00pm 32.3 31.6 11.5 28 12.4 SW 6 19 3 10 1015.4 1012.3 0.0
21/03:30pm 31.2 30.4 11.6 30 11.7 SE 7 9 4 5 1015.4 1012.3 0.0
21/03:00pm 31.1 29.1 11.5 30 11.7 SSE 13 19 7 10 1015.4 1012.3 0.0
21/02:30pm 31.2 29.7 10.5 28 12.1 SSE 9 15 5 8 1015.5 1012.4 0.0
21/02:00pm 30.6 29.7 11.5 30 11.3 SSW 7 13 4 7 1015.9 1012.8 0.0
21/01:30pm 30.5 30.9 13.7 35 10.3 S 4 9 2 5 1016.1 1013.0 0.0
21/01:00pm 29.6 29.5 15.0 41 9.1 SSE 9 13 5 7 1016.3 1013.2 0.0
21/12:30pm 28.9 29.2 16.1 46 8.1 E 9 15 5 8 1016.6 1013.5 0.0
21/12:00pm 28.2 29.0 15.8 47 7.8 SW 6 11 3 6 1017.2 1014.2 0.0
21/11:30am 27.9 28.3 16.2 49 7.4 ENE 9 20 5 11 1017.8 1014.7 0.0
21/11:00am 27.6 28.4 15.9 49 7.3 NE 6 11 3 6 1018.4 1015.3 0.0
21/10:30am 26.6 27.2 15.9 51 6.7 NE 7 15 4 8 1018.9 1015.9 0.0
21/10:00am 26.3 27.4 17.9 60 5.4 ESE 9 15 5 8 1019.2 1016.2 0.0
21/09:30am 25.0 25.7 18.0 65 4.5 ESE 11 15 6 8 1019.3 1016.3 0.0
21/09:00am 23.6 24.6 17.8 70 3.7 E 9 13 5 7 1019.6 1016.5 0.0
21/08:30am 22.5 22.9 18.1 76 2.8 ESE 13 15 7 8 1019.5 1016.4 0.0
21/08:00am 21.4 22.7 18.4 83 1.9 ESE 9 15 5 8 1019.1 1016.1 0.0
21/07:30am 19.9 21.6 18.0 89 1.2 S 6 7 3 4 1018.8 1015.8 0.0
21/07:00am 17.9 18.9 16.4 91 0.9 WSW 6 7 3 4 1018.4 1015.3 0.0
21/06:30am 16.8 17.5 15.5 92 0.8 WNW 6 7 3 4 1018.1 1015.0 0.0
21/06:00am 16.7 17.1 15.4 92 0.8 N 7 9 4 5 1017.9 1014.8 0.0
21/05:30am 16.8 18.5 15.3 91 0.9 CALM 0 0 0 0 1017.6 1014.5 0.0
21/05:00am 17.1 18.9 15.4 90 1.0 CALM 0 0 0 0 1017.4 1014.3 0.0
21/04:30am 17.4 19.2 15.6 89 1.1 CALM 0 0 0 0 1017.2 1014.2 0.0
21/04:00am 18.3 20.0 15.2 82 1.9 CALM 0 4 0 2 1017.2 1014.2 0.0

Other Formats:

Comma delimited format used in spreadsheet applications
http://www.bom.gov.au/fwo/IDW60801/IDW60801.94317.axf

JavaScript Object Notation format (JSON) in row-major order
http://www.bom.gov.au/fwo/IDW60801/IDW60801.94317.json